Fifty Lakes, Minnesota
Current Conditions -  °F | °C
As of 7:54 AM on Friday 31 Oct 2014 (Local Time) from KPWC Reporting Station
Clear Clear  
Wind Chill: 23°   Ceiling: Unl
Heat Index: 23°   Visibility: 10mi
Dew Point: 18°   Wind: 0mph
Humidity: 80%   Direction: NA
Pressure: 30.57"   Gusts: NA
Location:  46.74°N, 94.09°W
Report Text: KPWC 311254Z AUTO 00000KT 10SM CLR M05/M08 A3057 RMK AO2
Loading
Personal Weather Stations






























Interactive Weather Map
Tropical Storm Tracking
New forecast layout! Learn more

10-Day Weather Forecast

Advertisements
Track Severe Weather on mobile